Fergus Falls, MN

11:36 AM CDT on July 27, 2016 (GMT -0500)
Northwest Fergus Falls | | Change Station

Elev 1234 ft 46.29 °N, 96.09 °W | Updated 9 minutes ago

Scattered Clouds
Scattered Clouds
74.5 °F
Feels Like 76 °F
N
2.3
Wind Variable Wind from NE
Gusts 4.5 mph

Today
High -- | Low -- °F
--% Chance of Precip.
Yesterday
High -- | Low -- °F
Precip. -- in
Pressure 30.01 in
Visibility 10.0 miles
Clouds Scattered Clouds 1900 ft
Heat Index 76 °F
Dew Point 64 °F
Humidity 70%
Rainfall 0.00 in
Snow Depth Not available.
6:00 AM 9:00 PM
Last Quarter, 42% visible
METAR KFFM 271614Z AUTO 05007KT 10SM SCT019 23/18 A3001 RMK AO2
Pressure 30.01 in
Visibility 10.0 miles
Clouds Scattered Clouds 1900 ft
Heat Index 76 °F
Dew Point 64 °F
Humidity 70%
Rainfall 0.00 in
Snow Depth Not available.
6:00 AM 9:00 PM
Last Quarter, 42% visible
METAR KFFM 271614Z AUTO 05007KT 10SM SCT019 23/18 A3001 RMK AO2

10-Day Weather Forecast

Almanac

Astronomy

Jul. 27, 2016 Rise Set
Actual Time
Civil Twilight
Nautical Twilight
Astronomical Twilight
Moon
Length of Visible Light
Length of Day
Tomorrow will be .
, % of the Moon is Illuminated

Today's Extremes

State Highs State Lows

Community

WunderPhotos

Upload Photos

1,927,880 photos uploaded!

WunderBlog® & News

Nearby

Air Quality

  Air Quality AQ Index Pollutant
Not available.

Snow Depth

Station Depth Elevation

Earthquake Activity

City Distance Mag. Time & Date
Minimum magnitude displayed is 2.5.

Coastal Water Temperatures

Place Temperature

Stations

Nearby Weather Stations

Station Location Temp. Windchill Dew Point Humidity Wind Precip. Elev Updated Type
                   

Watches & Warnings

There are currently no watches in effect.